createdAt,value
2022-10-05T00:01:15.434Z,60.83
2022-10-05T00:03:42.993Z,60.75
2022-10-05T00:06:10.658Z,61.06
2022-10-05T00:08:38.216Z,60.66
2022-10-05T00:11:07.344Z,60.92
2022-10-05T00:13:34.884Z,60.85
2022-10-05T00:16:09.219Z,60.69
2022-10-05T00:18:38.315Z,60.81
2022-10-05T00:21:13.617Z,60.77
2022-10-05T00:23:41.126Z,60.73
2022-10-05T00:26:12.904Z,60.71
2022-10-05T00:28:40.920Z,60.87
2022-10-05T00:31:11.670Z,60.79
2022-10-05T00:33:40.649Z,60.85
2022-10-05T00:36:08.397Z,60.72
2022-10-05T00:38:35.983Z,60.80
2022-10-05T00:41:06.372Z,60.79
2022-10-05T00:44:00.280Z,60.63
2022-10-05T00:46:30.276Z,60.55
2022-10-05T00:49:01.616Z,60.56
2022-10-05T00:51:29.778Z,60.36
2022-10-05T00:54:18.043Z,60.48
2022-10-05T00:57:01.128Z,60.54
2022-10-05T00:59:36.828Z,60.68
2022-10-05T01:02:07.861Z,60.94
2022-10-05T01:04:44.470Z,60.56
2022-10-05T01:07:15.992Z,60.59
2022-10-05T01:09:47.342Z,60.56
2022-10-05T01:12:17.508Z,60.80
2022-10-05T01:14:49.804Z,60.69
2022-10-05T01:17:20.062Z,60.46
2022-10-05T01:20:08.145Z,60.66
2022-10-05T01:22:42.420Z,60.49
2022-10-05T01:25:18.285Z,60.56
2022-10-05T01:27:53.377Z,60.58
2022-10-05T01:30:21.405Z,60.57
2022-10-05T01:32:51.789Z,60.59
2022-10-05T01:35:27.984Z,60.48
2022-10-05T01:38:00.850Z,60.57
2022-10-05T01:40:32.332Z,60.64
2022-10-05T01:43:05.700Z,60.72
2022-10-05T01:45:36.244Z,60.64
2022-10-05T01:48:08.313Z,60.76
2022-10-05T01:50:41.352Z,60.71
2022-10-05T01:53:12.381Z,60.53
2022-10-05T01:55:42.304Z,60.65
2022-10-05T01:58:17.176Z,60.56
2022-10-05T02:00:48.146Z,60.57
2022-10-05T02:03:18.451Z,60.54
2022-10-05T02:05:49.165Z,60.70
2022-10-05T02:08:17.713Z,60.50
2022-10-05T02:10:47.308Z,60.64
2022-10-05T02:13:17.629Z,60.57
2022-10-05T02:15:46.046Z,60.62
2022-10-05T02:18:15.278Z,60.56
2022-10-05T02:20:42.836Z,60.67
2022-10-05T02:23:12.418Z,60.60
2022-10-05T02:25:40.848Z,60.42
2022-10-05T02:28:10.255Z,60.50
2022-10-05T02:30:42.432Z,60.58
2022-10-05T02:33:11.681Z,60.54
2022-10-05T02:35:39.323Z,60.56
2022-10-05T02:38:09.494Z,60.70
2022-10-05T02:40:42.305Z,60.49
2022-10-05T02:43:16.177Z,60.58
2022-10-05T02:45:47.667Z,60.51
2022-10-05T02:48:19.389Z,60.77
2022-10-05T02:50:52.552Z,60.53
2022-10-05T02:53:24.737Z,60.35
2022-10-05T02:55:57.672Z,60.59
2022-10-05T02:58:26.325Z,60.69
2022-10-05T03:00:58.169Z,60.68
2022-10-05T03:03:29.318Z,60.47
2022-10-05T03:06:02.107Z,60.69
2022-10-05T03:08:33.840Z,60.69
2022-10-05T03:11:05.745Z,60.60
2022-10-05T03:13:35.566Z,60.80
2022-10-05T03:16:13.877Z,60.63
2022-10-05T03:18:48.242Z,60.69
2022-10-05T03:21:29.837Z,60.79
2022-10-05T03:24:06.642Z,60.70
2022-10-05T03:26:38.122Z,60.76
2022-10-05T03:29:09.715Z,60.45
2022-10-05T03:31:40.450Z,60.45
2022-10-05T03:34:10.196Z,60.63
2022-10-05T03:36:40.085Z,60.54
2022-10-05T03:39:10.501Z,60.72
2022-10-05T03:41:41.766Z,60.46
2022-10-05T03:44:16.523Z,60.37
2022-10-05T03:46:57.431Z,60.65
2022-10-05T03:49:29.365Z,60.57
2022-10-05T03:52:00.123Z,60.64
2022-10-05T03:54:29.995Z,60.48
2022-10-05T03:56:58.521Z,60.65
2022-10-05T03:59:32.360Z,60.41
2022-10-05T04:02:02.352Z,60.46
2022-10-05T04:04:32.477Z,60.41
2022-10-05T04:07:00.032Z,60.64
2022-10-05T04:09:29.085Z,60.46
2022-10-05T04:12:04.217Z,60.80
2022-10-05T04:14:33.831Z,60.87
2022-10-05T04:17:04.152Z,60.86
2022-10-05T04:19:33.572Z,60.78
2022-10-05T04:22:05.761Z,60.87
2022-10-05T04:24:35.425Z,61.01
2022-10-05T04:27:05.617Z,61.08
2022-10-05T04:29:34.730Z,61.03
2022-10-05T04:32:10.168Z,61.41
2022-10-05T04:34:47.227Z,61.13
2022-10-05T04:37:18.471Z,61.20
2022-10-05T04:39:47.551Z,61.21
2022-10-05T04:42:18.142Z,61.29
2022-10-05T04:44:58.423Z,60.97
2022-10-05T04:47:36.788Z,61.24
2022-10-05T04:50:19.092Z,61.10
2022-10-05T04:52:51.888Z,60.83
2022-10-05T04:55:23.292Z,60.72
2022-10-05T04:57:51.598Z,60.72
2022-10-05T05:00:23.744Z,60.65
2022-10-05T05:03:02.636Z,60.43
2022-10-05T05:05:35.675Z,60.76
2022-10-05T05:08:10.280Z,60.42
2022-10-05T05:10:46.581Z,60.57
2022-10-05T05:13:25.919Z,60.47
2022-10-05T05:15:54.222Z,60.79
2022-10-05T05:18:35.701Z,60.62
2022-10-05T05:21:05.908Z,60.39
2022-10-05T05:23:38.615Z,60.59
2022-10-05T05:26:08.792Z,60.44
2022-10-05T05:28:40.129Z,60.38
2022-10-05T05:31:11.781Z,60.42
2022-10-05T05:33:45.294Z,60.13
2022-10-05T05:36:23.610Z,60.55
2022-10-05T05:38:55.741Z,60.61
2022-10-05T05:41:28.015Z,60.37
2022-10-05T05:44:06.046Z,60.48
2022-10-05T05:47:01.791Z,60.60
2022-10-05T05:49:31.261Z,60.53
2022-10-05T05:52:00.665Z,60.53
2022-10-05T05:54:30.677Z,60.41
2022-10-05T05:57:01.246Z,60.52
2022-10-05T05:59:30.577Z,60.61
2022-10-05T06:02:00.558Z,60.50
2022-10-05T06:04:31.937Z,60.54
2022-10-05T06:06:59.578Z,60.64
2022-10-05T06:09:27.868Z,60.57
2022-10-05T06:11:56.641Z,60.47
2022-10-05T06:14:26.136Z,60.46
2022-10-05T06:16:55.344Z,60.51
2022-10-05T06:19:23.733Z,60.44
2022-10-05T06:21:55.533Z,60.42
2022-10-05T06:24:24.597Z,60.55
2022-10-05T06:27:09.833Z,60.38
2022-10-05T06:29:43.293Z,60.61
2022-10-05T06:32:14.849Z,60.62
2022-10-05T06:34:53.164Z,60.34
2022-10-05T06:37:26.681Z,60.66
2022-10-05T06:40:02.871Z,60.41
2022-10-05T06:42:41.240Z,60.46
2022-10-05T06:45:12.969Z,60.45
2022-10-05T06:47:45.236Z,60.43
2022-10-05T06:50:16.233Z,60.63
2022-10-05T06:52:53.261Z,60.46
2022-10-05T06:55:24.012Z,60.43
2022-10-05T06:57:58.295Z,60.53
2022-10-05T07:00:26.653Z,60.46
2022-10-05T07:02:57.215Z,60.31
2022-10-05T07:05:53.867Z,60.27
2022-10-05T07:08:26.808Z,60.35
2022-10-05T07:11:03.916Z,60.65
2022-10-05T07:13:44.026Z,60.35
2022-10-05T07:16:13.650Z,60.55
2022-10-05T07:18:50.030Z,60.48
2022-10-05T07:21:21.400Z,60.63
2022-10-05T07:24:00.460Z,60.62
2022-10-05T07:26:32.470Z,60.56
2022-10-05T07:29:20.455Z,60.68
2022-10-05T07:31:50.850Z,60.69
2022-10-05T07:34:22.833Z,60.51
2022-10-05T07:37:18.084Z,60.75
2022-10-05T07:40:00.232Z,60.77
2022-10-05T07:42:42.441Z,60.66
2022-10-05T07:45:18.267Z,60.70
2022-10-05T07:47:48.453Z,60.72
2022-10-05T07:50:19.823Z,60.70
2022-10-05T07:52:49.405Z,60.67
2022-10-05T07:55:19.864Z,60.74
2022-10-05T07:57:50.884Z,60.69
2022-10-05T08:00:20.101Z,60.76
2022-10-05T08:02:49.611Z,60.65
2022-10-05T08:05:20.825Z,60.45
2022-10-05T08:07:48.953Z,60.71
2022-10-05T08:10:23.788Z,60.71
2022-10-05T08:13:03.753Z,60.68
2022-10-05T08:15:32.953Z,60.54
2022-10-05T08:18:01.549Z,60.89
2022-10-05T08:20:33.934Z,60.67
2022-10-05T08:23:03.425Z,60.67
2022-10-05T08:25:38.669Z,60.75
2022-10-05T08:28:09.427Z,60.90
2022-10-05T08:30:53.886Z,60.87
2022-10-05T08:33:21.493Z,60.77
2022-10-05T08:35:51.359Z,60.65
2022-10-05T08:38:20.194Z,60.70
2022-10-05T08:41:18.622Z,60.83
2022-10-05T08:44:03.283Z,60.93
2022-10-05T08:46:38.323Z,60.81
2022-10-05T08:49:14.009Z,60.66
2022-10-05T08:52:10.192Z,60.70
2022-10-05T08:54:44.583Z,60.76
2022-10-05T08:57:46.504Z,60.88
2022-10-05T09:00:15.117Z,60.69
2022-10-05T09:03:04.546Z,60.74
2022-10-05T09:06:21.491Z,60.82
2022-10-05T09:09:20.085Z,60.74
2022-10-05T09:11:55.907Z,60.93
2022-10-05T09:14:34.586Z,60.78
2022-10-05T09:17:14.181Z,60.82
2022-10-05T09:20:09.735Z,60.85
2022-10-05T09:22:40.271Z,60.89
2022-10-05T09:25:17.090Z,60.75
2022-10-05T09:27:45.633Z,60.83
2022-10-05T09:30:21.510Z,60.97
2022-10-05T09:33:09.593Z,60.88
2022-10-05T09:36:25.784Z,60.70
2022-10-05T09:39:27.081Z,60.86
2022-10-05T09:42:04.160Z,60.67
2022-10-05T09:44:51.258Z,60.74
2022-10-05T09:47:52.340Z,60.75
2022-10-05T09:50:50.813Z,60.56
2022-10-05T09:53:53.413Z,60.68
2022-10-05T09:59:27.244Z,60.82
2022-10-05T10:02:05.471Z,64.08
2022-10-05T10:04:52.802Z,64.04
2022-10-05T10:07:33.158Z,63.93
2022-10-05T10:10:34.205Z,65.83
2022-10-05T10:13:18.216Z,65.39
2022-10-05T10:15:57.619Z,65.22
2022-10-05T10:18:45.911Z,65.03
2022-10-05T10:21:37.948Z,65.17
2022-10-05T10:24:14.025Z,65.39
2022-10-05T10:26:54.439Z,64.77
2022-10-05T10:29:50.369Z,64.67
2022-10-05T10:32:37.350Z,64.62
2022-10-05T10:35:12.892Z,64.47
2022-10-05T10:38:28.563Z,64.40
2022-10-05T10:41:22.418Z,64.41
2022-10-05T10:44:07.025Z,64.35
2022-10-05T10:46:39.215Z,64.52
2022-10-05T10:49:17.006Z,64.37
2022-10-05T10:51:56.627Z,64.34
2022-10-05T10:54:35.104Z,64.40
2022-10-05T10:57:08.623Z,64.37
2022-10-05T11:00:15.451Z,64.33
2022-10-05T11:03:11.419Z,64.10
2022-10-05T11:05:54.267Z,64.28
2022-10-05T11:09:09.611Z,64.11
2022-10-05T11:12:15.492Z,63.99
2022-10-05T11:15:11.257Z,64.22
2022-10-05T11:17:59.129Z,64.12
2022-10-05T11:20:37.833Z,63.91
2022-10-05T11:23:17.725Z,63.91
2022-10-05T11:25:51.817Z,63.93
2022-10-05T11:28:36.104Z,63.86
2022-10-05T11:31:24.744Z,63.91
2022-10-05T11:34:12.496Z,63.82
2022-10-05T11:37:10.887Z,63.88
2022-10-05T11:39:44.091Z,64.00
2022-10-05T11:42:28.901Z,63.65
2022-10-05T11:45:22.668Z,63.88
2022-10-05T11:48:10.870Z,63.88
2022-10-05T11:50:40.689Z,63.73
2022-10-05T11:53:12.097Z,63.59
2022-10-05T11:55:41.103Z,63.82
2022-10-05T11:58:13.877Z,63.79
2022-10-05T12:00:43.080Z,63.69
2022-10-05T12:03:24.006Z,63.26
2022-10-05T12:06:02.233Z,63.58
2022-10-05T12:08:35.062Z,63.76
2022-10-05T12:11:12.005Z,63.51
2022-10-05T12:13:43.184Z,63.65
2022-10-05T12:16:13.822Z,63.50
2022-10-05T12:18:47.822Z,63.48
2022-10-05T12:21:19.707Z,63.60
2022-10-05T12:23:48.606Z,63.66
2022-10-05T12:26:17.349Z,63.44
2022-10-05T12:28:47.306Z,63.53
2022-10-05T12:31:21.553Z,63.45
2022-10-05T12:33:54.389Z,63.48
2022-10-05T12:36:26.354Z,63.42
2022-10-05T12:38:59.014Z,63.62
2022-10-05T12:41:28.525Z,63.57
2022-10-05T12:44:03.406Z,63.38
2022-10-05T12:46:35.079Z,63.55
2022-10-05T12:49:24.951Z,63.29
2022-10-05T12:51:56.173Z,63.44
2022-10-05T12:54:25.701Z,63.53
2022-10-05T12:56:55.697Z,63.37
2022-10-05T12:59:35.944Z,63.22
2022-10-05T13:02:06.135Z,63.42
2022-10-05T13:04:40.821Z,63.43
2022-10-05T13:07:34.434Z,63.46
2022-10-05T13:10:05.732Z,63.40
2022-10-05T13:12:42.312Z,63.57
2022-10-05T13:15:15.421Z,63.44
2022-10-05T13:17:45.423Z,63.69
2022-10-05T13:20:17.353Z,63.22
2022-10-05T13:22:44.945Z,63.31
2022-10-05T13:25:21.834Z,63.16
2022-10-05T13:27:58.430Z,63.19
2022-10-05T13:30:26.072Z,63.24
2022-10-05T13:32:57.055Z,63.19
2022-10-05T13:35:37.048Z,63.13
2022-10-05T13:38:08.923Z,63.00
2022-10-05T13:40:39.115Z,63.04
2022-10-05T13:43:08.444Z,63.13
2022-10-05T13:45:40.276Z,63.12
2022-10-05T13:48:14.928Z,63.06
2022-10-05T13:50:45.986Z,62.97
2022-10-05T13:53:17.950Z,62.95
2022-10-05T13:55:46.944Z,63.06
2022-10-05T13:58:20.164Z,62.99
2022-10-05T14:00:49.444Z,62.91
2022-10-05T14:03:27.883Z,62.97
2022-10-05T14:05:59.111Z,62.83
2022-10-05T14:08:28.250Z,62.81
2022-10-05T14:10:56.824Z,62.85
2022-10-05T14:13:28.699Z,62.93
2022-10-05T14:15:59.297Z,62.89
2022-10-05T14:18:27.698Z,63.36
2022-10-05T14:21:17.135Z,62.85
2022-10-05T14:23:44.950Z,62.73
2022-10-05T14:26:18.745Z,62.64
2022-10-05T14:28:57.923Z,62.96
2022-10-05T14:31:29.059Z,62.83
2022-10-05T14:33:56.633Z,62.65
2022-10-05T14:36:36.080Z,62.69
2022-10-05T14:39:05.137Z,62.65
2022-10-05T14:41:35.628Z,62.62
2022-10-05T14:44:05.199Z,62.73
2022-10-05T14:46:33.562Z,62.71
2022-10-05T14:49:13.960Z,62.89
2022-10-05T14:51:43.189Z,62.60
2022-10-05T14:54:23.417Z,62.53
2022-10-05T14:56:51.301Z,62.52
2022-10-05T14:59:27.810Z,62.80
2022-10-05T15:01:57.490Z,62.69
2022-10-05T15:04:31.882Z,62.75
2022-10-05T15:07:06.961Z,62.63
2022-10-05T15:09:47.319Z,62.65
2022-10-05T15:12:15.220Z,62.68
2022-10-05T15:14:44.429Z,62.82
2022-10-05T15:17:15.536Z,62.71
2022-10-05T15:19:46.668Z,62.62
2022-10-05T15:22:26.968Z,62.65
2022-10-05T15:25:01.572Z,62.76
2022-10-05T15:27:32.759Z,62.87
2022-10-05T15:30:04.616Z,62.77
2022-10-05T15:32:41.553Z,62.73
2022-10-05T15:35:48.042Z,62.70
2022-10-05T15:38:23.772Z,62.63
2022-10-05T15:40:59.501Z,62.63
2022-10-05T15:43:27.372Z,62.56
2022-10-05T15:45:58.378Z,62.77
2022-10-05T15:48:29.078Z,62.59
2022-10-05T15:51:01.339Z,62.56
2022-10-05T15:53:34.121Z,62.75
2022-10-05T15:56:03.650Z,62.64
2022-10-05T15:58:53.816Z,62.53
2022-10-05T16:01:22.462Z,62.69
2022-10-05T16:03:51.459Z,62.61
2022-10-05T16:06:43.268Z,62.71
2022-10-05T16:09:18.850Z,62.61
2022-10-05T16:11:59.632Z,62.77
2022-10-05T16:14:34.442Z,62.50
2022-10-05T16:17:13.571Z,62.05
2022-10-05T16:19:44.158Z,62.10
2022-10-05T16:22:16.737Z,62.31
2022-10-05T16:24:52.078Z,61.80
2022-10-05T16:27:22.030Z,62.23
2022-10-05T16:29:53.160Z,62.18
2022-10-05T16:32:22.604Z,62.07
2022-10-05T16:34:57.535Z,62.12
2022-10-05T16:37:29.367Z,62.23
2022-10-05T16:40:00.006Z,62.14
2022-10-05T16:42:35.716Z,62.10
2022-10-05T16:45:10.888Z,62.23
2022-10-05T16:47:43.946Z,62.34
2022-10-05T16:50:18.808Z,62.33
2022-10-05T16:52:47.755Z,62.40
2022-10-05T16:55:20.969Z,62.04
2022-10-05T16:57:51.521Z,62.23
2022-10-05T17:00:21.347Z,62.09
2022-10-05T17:03:05.124Z,62.12
2022-10-05T17:05:44.088Z,62.22
2022-10-05T17:08:21.475Z,62.13
2022-10-05T17:10:59.045Z,62.22
2022-10-05T17:13:43.391Z,62.22
2022-10-05T17:16:13.216Z,62.41
2022-10-05T17:18:55.076Z,62.71
2022-10-05T17:21:23.844Z,62.76
2022-10-05T17:23:55.022Z,63.17
2022-10-05T17:26:42.410Z,63.01
2022-10-05T17:29:10.720Z,63.15
2022-10-05T17:32:02.931Z,62.84
2022-10-05T17:34:31.068Z,62.68
2022-10-05T17:36:59.737Z,62.08
2022-10-05T17:39:46.428Z,62.08
2022-10-05T17:42:49.160Z,61.64
2022-10-05T17:45:52.465Z,61.71
2022-10-05T17:49:01.246Z,61.23
2022-10-05T17:52:15.567Z,61.00
2022-10-05T17:55:14.344Z,60.70
2022-10-05T17:57:41.915Z,60.83
2022-10-05T18:00:34.713Z,60.55
2022-10-05T18:03:02.299Z,60.42
2022-10-05T18:05:30.090Z,60.52
2022-10-05T18:08:21.203Z,60.50
2022-10-05T18:11:07.521Z,60.40
2022-10-05T18:13:35.708Z,59.96
2022-10-05T18:16:09.667Z,59.98
2022-10-05T18:18:55.792Z,60.29
2022-10-05T18:21:35.529Z,60.05
2022-10-05T18:24:29.556Z,60.48
2022-10-05T18:27:03.300Z,60.22
2022-10-05T18:30:08.900Z,60.03
2022-10-05T18:32:45.355Z,59.77
2022-10-05T18:35:14.555Z,59.97
2022-10-05T18:37:47.301Z,59.95
2022-10-05T18:40:23.890Z,59.58
2022-10-05T18:42:53.700Z,60.01
2022-10-05T18:45:23.611Z,59.65
2022-10-05T18:47:58.678Z,59.77
2022-10-05T18:50:28.049Z,59.58
2022-10-05T18:53:08.425Z,59.65
2022-10-05T18:55:37.340Z,59.69
2022-10-05T18:58:10.963Z,59.65
2022-10-05T19:00:46.501Z,59.65
2022-10-05T19:03:17.504Z,59.72
2022-10-05T19:05:49.009Z,59.77
2022-10-05T19:08:25.532Z,59.70
2022-10-05T19:10:56.032Z,60.05
2022-10-05T19:13:30.962Z,60.14
2022-10-05T19:16:04.800Z,60.28
2022-10-05T19:18:46.519Z,60.30
2022-10-05T19:21:21.650Z,60.37
2022-10-05T19:24:13.946Z,60.57
2022-10-05T19:26:51.701Z,60.69
2022-10-05T19:29:27.020Z,60.63
2022-10-05T19:31:56.463Z,60.96
2022-10-05T19:34:33.712Z,60.98
2022-10-05T19:37:04.077Z,61.12
2022-10-05T19:39:35.955Z,60.96
2022-10-05T19:42:12.575Z,60.91
2022-10-05T19:44:47.981Z,61.04
2022-10-05T19:47:18.583Z,61.24
2022-10-05T19:49:57.499Z,61.35
2022-10-05T19:52:28.293Z,61.37
2022-10-05T19:55:04.602Z,61.46
2022-10-05T19:57:32.574Z,61.47
2022-10-05T20:00:00.405Z,61.53
2022-10-05T20:02:28.230Z,61.55
2022-10-05T20:04:57.413Z,61.49
2022-10-05T20:07:24.973Z,61.52
2022-10-05T20:09:54.633Z,61.60
2022-10-05T20:12:22.886Z,61.43
2022-10-05T20:15:23.885Z,61.61
2022-10-05T20:18:23.574Z,61.60
2022-10-05T20:20:52.482Z,61.62
2022-10-05T20:23:23.954Z,61.75
2022-10-05T20:26:05.508Z,61.64
2022-10-05T20:28:33.379Z,61.56
2022-10-05T20:31:01.331Z,61.67
2022-10-05T20:33:28.976Z,61.56
2022-10-05T20:35:57.966Z,61.66
2022-10-05T20:38:25.958Z,61.78
2022-10-05T20:40:53.779Z,61.73
2022-10-05T20:43:21.292Z,61.72
2022-10-05T20:45:48.829Z,61.87
2022-10-05T20:48:17.400Z,61.79
2022-10-05T20:50:44.932Z,61.63
2022-10-05T20:53:14.097Z,61.79
2022-10-05T20:55:42.986Z,61.71
2022-10-05T20:58:11.060Z,61.75
2022-10-05T21:00:56.601Z,61.77
2022-10-05T21:03:24.293Z,61.80
2022-10-05T21:05:51.844Z,61.97
2022-10-05T21:08:20.708Z,61.81
2022-10-05T21:10:49.296Z,61.84
2022-10-05T21:13:17.552Z,61.90
2022-10-05T21:15:45.087Z,61.89
2022-10-05T21:18:12.636Z,61.85
2022-10-05T21:20:40.145Z,61.86
2022-10-05T21:23:07.672Z,61.84
2022-10-05T21:25:36.537Z,61.89
2022-10-05T21:28:04.918Z,61.86
2022-10-05T21:30:32.457Z,61.80
2022-10-05T21:32:59.996Z,61.92
2022-10-05T21:35:27.573Z,61.98
2022-10-05T21:37:55.120Z,61.93
2022-10-05T21:40:23.837Z,61.96
2022-10-05T21:42:52.709Z,61.91
2022-10-05T21:45:20.249Z,61.88
2022-10-05T21:47:47.807Z,61.89
2022-10-05T21:50:15.521Z,61.78
2022-10-05T21:52:43.052Z,61.90
2022-10-05T21:55:10.781Z,61.89
2022-10-05T21:57:38.315Z,61.99
2022-10-05T22:00:08.841Z,61.95
2022-10-05T22:02:36.427Z,61.97
2022-10-05T22:05:04.180Z,61.92
2022-10-05T22:07:31.941Z,61.95
2022-10-05T22:09:59.493Z,62.10
2022-10-05T22:12:28.073Z,61.93
2022-10-05T22:14:55.568Z,61.88
2022-10-05T22:17:27.099Z,62.01
2022-10-05T22:19:54.889Z,61.92
2022-10-05T22:22:22.405Z,61.88
2022-10-05T22:24:49.948Z,61.88
2022-10-05T22:27:17.513Z,62.06
2022-10-05T22:29:45.068Z,61.82
2022-10-05T22:32:12.881Z,61.90
2022-10-05T22:34:41.771Z,62.04
2022-10-05T22:37:12.873Z,61.95
2022-10-05T22:39:40.539Z,61.90
2022-10-05T22:42:08.360Z,62.04
2022-10-05T22:44:36.222Z,62.03
2022-10-05T22:47:04.005Z,62.06
2022-10-05T22:49:31.542Z,61.91
2022-10-05T22:52:00.423Z,62.05
2022-10-05T22:54:30.085Z,62.11
2022-10-05T22:56:59.294Z,62.14
2022-10-05T22:59:26.819Z,62.24
2022-10-05T23:01:54.556Z,61.91
2022-10-05T23:04:22.250Z,61.99
2022-10-05T23:06:49.763Z,61.95
2022-10-05T23:09:18.757Z,61.98
2022-10-05T23:11:51.789Z,61.88
2022-10-05T23:14:19.512Z,61.90
2022-10-05T23:16:47.450Z,61.84
2022-10-05T23:19:15.032Z,62.00
2022-10-05T23:21:42.613Z,61.99
2022-10-05T23:24:10.163Z,62.11
2022-10-05T23:26:39.182Z,61.98
2022-10-05T23:29:06.768Z,61.87
2022-10-05T23:31:36.438Z,61.99
2022-10-05T23:34:04.023Z,61.99
2022-10-05T23:36:32.373Z,62.07
2022-10-05T23:38:59.917Z,61.92
2022-10-05T23:41:27.470Z,62.01
2022-10-05T23:43:56.361Z,62.04
2022-10-05T23:46:24.038Z,61.99
2022-10-05T23:48:53.204Z,62.12
2022-10-05T23:51:20.765Z,62.08
2022-10-05T23:53:48.359Z,62.01
2022-10-05T23:56:15.932Z,61.96
2022-10-05T23:58:43.532Z,62.08
